Aktualne dane pomiarowe

Uwaga, wersja testowa! Automatyczne pobieranie danych za pomocą narzędzi lub skryptów to umożliwiających jest zabronione.

Dane meteo z obszaru Polski uzyskane na podstawie depesz SYNOP pobieranych co godzinę z NWS. Najedź myszką na symbol przedstawiony w tabeli, aby uzyskać informacje co do jego znaczenia. Prosimy pamiętać, że to testowa wersja strony, która jeszcze nie jest ukończona. Stworzono również jest krótki FAQ dotyczący korzystania z tej podstrony Anomalie temperatury w chwili obecnej odniesione są do okresu referencyjnego 1951-2016. Okres ten będzie później zmieniony na 1981-2010. Kliknij ikonę aby pobrać plik CSV. Kliknij ikonę aby wygenerować mapę synoptyczną dla danego terminu.

Wybierz Datę:    

        

Sulejów (12469)

Dane terminowe dla wybranej stacji. Kliknij datę, aby otrzymać dane z tego terminu dla wszystkich stacji.

TemperaturaZachmurzenieWiatrCiśnienieOpadyPogoda
 Data t td wb tx tn tg rh  Nt Nl Cl Cm Ch ws wd g1 g2 wx mslp ppp ch 24h 12h t ww ww w1 w2  
2019-06-22 23:00:00 15.2 11.3 12.6--- 7835.0wx-wx3wx--31021.4 998.8 1.1---------
2019-06-22 22:00:00 14.9 11.8 12.8--- 8235.0wx-wx3wx--31021.3 998.6 0.7---------
2019-06-22 21:00:00 16.0 11.9 13.3--- 7730.0wx-wx2wx--21020.6 998.0 0.2---------
2019-06-22 20:00:00 18.0 12.1 14.2--- 6830.0wx-wx2wx--21020.1 997.7 -0.3---------
2019-06-22 19:00:00 19.4 12.1 14.8--- 6330.0wx-wx2wx--21020.2 997.9 0.0---------
2019-06-22 18:00:00 21.0 11.8 15.3 24.8 18.1- 5635.0wxwxwxwx3wx-831020.0 997.8 -0.3- 0.012------
2019-06-22 17:00:00 22.4 12.0 16.0--- 5240.0wxwxwxwx3wx--31020.1 998.0 -0.5---------
2019-06-22 16:00:00 24.5 11.4 16.6--- 4440.0wxwxwxwx4wx--41019.8 997.9 -1.1---------
2019-06-22 15:00:00 24.4 10.6 16.2--- 4240.0wxwxwxwx4wx-841020.0 998.1 -1.3---------
2019-06-22 14:00:00 24.1 12.6 17.0--- 4940.0wxwxwxwx3wx-831020.4 998.5 -1.3---------
2019-06-22 13:00:00 23.8 11.7 16.5--- 4740.0wxwxwxwx3wx--31021.0 999.0 -0.9---------
2019-06-22 12:00:00 24.0 11.2 16.3--- 4535.0wxwxwxwx3wx--31021.4 999.4 -0.5- 0.06------
2019-06-22 11:00:00 23.7 11.9 16.5--- 4835.0wxwxwxwx3wx---1021.8 999.8 0.0---------
2019-06-22 10:00:00 23.1 13.2 16.9--- 5430.0wxwxwxwx4wx--41021.9 999.9 0.3---------
2019-06-22 09:00:00 22.2 13.7 16.8--- 5930.0wxwxwxwx4wx--41022.0 999.9 0.6---------
2019-06-22 08:00:00 20.8 13.9 16.3--- 6530.0wxwxwxwxwx4wx--41022.0 999.8 0.9---------
2019-06-22 07:00:00 19.7 14.4 16.2--- 7225.0wxwxwxwxwx4wx--41021.9 999.6 1.2---------
2019-06-22 06:00:00 18.1 15.1 16.0 20.0 14.7 13 8315.0wxwxwxwxwx3wx--31021.7 999.3 1.4 9.1 0.012----- 7.3
2019-06-22 05:00:00 17.0 15.6 16.0--- 918.0wxwxwxwx3wx--31021.4 998.9 1.7---wx---
2019-06-22 04:00:00 16.6 15.9 16.1--- 965.0wxwxwx2wx--21020.9 998.4 1.7---wx---
2019-06-22 03:00:00 15.9 15.3 15.4--- 965.0wxwxwx5wx--51020.5 997.9 1.6---wx---
2019-06-22 02:00:00 14.8 14.1 14.3--- 965.0wx-wxwx1wx--11019.8 997.2 1.2---wx---
2019-06-22 01:00:00 15.5 14.4 14.7--- 936.0wx-wxwx2wx--21019.3 996.7 1.0---wx---
2019-06-22 00:00:00 15.6 15.0 15.1--- 965.0wx-wxwx2wx--21018.8 996.3 0.8- 0.06wx---
2019-06-21 23:00:00 16.1 15.5 15.6--- 965.0wx-wxwx2wx--21018.5 996.0 0.9---wx---
2019-06-21 22:00:00 16.7 15.8 16.0--- 9410.0wx-wxwx2wx--21018.1 995.7 1.4---------
2019-06-21 21:00:00 17.9 17.0 17.2--- 9412.0wxwxwxwxwx1wx--11017.8 995.5 1.6---------
2019-06-21 20:00:00 18.4 17.0 17.4--- 9214.0wxwxwxwxwx1wx--11017.4 995.1 1.1---------
2019-06-21 19:00:00 19.3 17.0 17.7--- 8725.0wxwxwxwxwx2wx--21016.5 994.3 1.3---------
2019-06-21 18:00:00 19.9 17.8 18.4 28.7 19.9- 8825.0wxwxwx2wx-1421016.1 993.9 0.9- 9.012wx-w1w2--
2019-06-21 17:00:00 20.4 17.7 18.5--- 8515.0wxwxwx3wx---1016.1 994.0 1.2---wx-w1--
2019-06-21 16:00:00 22.7 19.4 20.3--- 8218.0wxwxwxwxwx0---01014.9 993.0 0.4---wx---
2019-06-21 15:00:00 21.7 19.0 19.8--- 8515.0wxwxwx2wx---1015.0 993.0 1.2---wx-w1--
2019-06-21 14:00:00 20.9 19.3 19.7--- 9112.0wxwxwx4wx--41014.9 992.8 0.8---wx-w1w2--
2019-06-21 13:00:00 20.9 18.4 19.1--- 864.0wxwxwx9wx-1491014.7 992.6 0.0---wx-w1--
2019-06-21 12:00:00 28.1 13.9 19.2--- 4225.0wxwxwxwx2wx--21013.3 991.8 -0.7- 0.06------
2019-06-21 11:00:00 27.5 15.4 19.8--- 4830.0wxwxwxwx3wx---1013.5 992.0 -0.2---------
2019-06-21 10:00:00 27.4 16.6 20.4--- 5230.0wxwxwxwxwx2wx---1014.2 992.6 0.5---------
2019-06-21 09:00:00 26.4 17.1 20.3--- 5730.0wxwxwxwxwx3wx--31014.1 992.5 0.7---------
2019-06-21 08:00:00 24.6 17.7 19.9--- 6625.0wx-wxwx2wx--21014.0 992.2 0.5---------
2019-06-21 07:00:00 22.4 17.2 18.8--- 7220.0wx-wxwx2wx--21014.0 992.1 0.6---------
2019-06-21 06:00:00 20.6 17.9 18.7 25.2 16.0 15 8512.0wx-wxwx1wx--11013.9 991.8 0.8 10.5 0.012----- 5.4
2019-06-21 05:00:00 17.3 16.7 16.8--- 965.0wx-wxwx1wx--11014.0 991.7 1.2---wx---
2019-06-21 04:00:00 16.1 15.5 15.6--- 963.5wx-wxwx2wx--21013.9 991.5 1.8---wx---
2019-06-21 03:00:00 16.3 15.7 15.8--- 964.0wx-wxwx1wx--11013.4 991.0 1.6---wx---
2019-06-21 02:00:00 16.7 16.0 16.2--- 964.0wx-wxwx1wx--11012.8 990.5 0.9---wx---
2019-06-21 01:00:00 17.3 16.2 16.5--- 936.0wxwxwxwxwx2wx--21012.0 989.7 0.2---wx---
2019-06-21 00:00:00 18.6 17.2 17.6--- 9210.0wxwxwxwxwx0---01011.6 989.4 0.1- 0.06wx-w1--
2.4 ms

 

Print Friendly, PDF & Email